Smithfield, Pennsylvania
Current Conditions -  °F | °C
As of 2:53 AM on Tuesday 27 Jan 2015 (Local Time) from KMGW Reporting Station
Overcast Overcast  
Wind Chill: 14°   Ceiling: 800
Heat Index: 22°   Visibility: 7mi
Dew Point: 17°   Wind: 6mph
Humidity: 82%   Direction: 290°WNW
Pressure: 29.84"   Gusts: NA
Location:  39.8°N, 79.81°W
Report Text: KMGW 270753Z AUTO 29005KT 7SM OVC008 M06/M08 A2984 RMK AO2 CIG 006V012 SLP120 T10561083 TSNO
Loading
Personal Weather Stations






























Interactive Weather Map New forecast layout! Learn more

10-Day Weather Forecast

Advertisements
Track Severe Weather on mobile